CT24 weather

North Canaan Aviation Facilities Inc Airport
North Canaan, Connecticut, United States

Public forecast

Using degrees Fahrenheit for public forecast. Weather courtesy of forecast.io.

METAR (pilot weather report)

Closest report is Pittsfield Municipal Airport, 23.0 nm (42.6 km) N. Retrieved 2019/09/18 07:54 UTC (23 minutes ago):

KPSF 180754Z AUTO 00000KT 10SM CLR 06/04 A3021 RMK AO2 SLP216 T00610044

TAF (pilot weather forecast)

Closest forecast is Grass Land Air Field, 2.3 nm (4.3 km) E. Retrieved UTC (0 seconds ago):